createdAt,value
2017-01-29T00:00:01.411Z,5.1
2017-01-29T00:05:01.315Z,5.2
2017-01-29T00:10:02.171Z,5.2
2017-01-29T00:15:01.400Z,5.1
2017-01-29T00:20:01.455Z,5.2
2017-01-29T00:25:01.412Z,5.2
2017-01-29T00:30:01.344Z,5.2
2017-01-29T00:35:01.410Z,5.2
2017-01-29T00:40:02.107Z,5.1
2017-01-29T00:45:01.925Z,5.1
2017-01-29T00:50:02.011Z,5.2
2017-01-29T00:55:01.691Z,5.2
2017-01-29T01:00:01.463Z,5.2
2017-01-29T01:05:01.660Z,5.2
2017-01-29T01:10:01.578Z,5.1
2017-01-29T01:15:01.847Z,5.1
2017-01-29T01:20:01.251Z,4.9
2017-01-29T01:25:02.114Z,5.1
2017-01-29T01:30:01.412Z,4.9
2017-01-29T01:35:01.478Z,4.9
2017-01-29T01:40:01.438Z,4.9
2017-01-29T01:45:01.376Z,4.9
2017-01-29T01:50:01.628Z,4.9
2017-01-29T01:55:01.338Z,4.8
2017-01-29T02:00:01.230Z,4.8
2017-01-29T02:05:01.748Z,4.8
2017-01-29T02:10:01.811Z,4.8
2017-01-29T02:15:02.049Z,4.8
2017-01-29T02:20:01.895Z,4.8
2017-01-29T02:25:01.705Z,4.8
2017-01-29T02:30:01.985Z,4.8
2017-01-29T02:35:02.160Z,4.8
2017-01-29T02:40:01.869Z,4.8
2017-01-29T02:45:01.751Z,4.7
2017-01-29T02:50:01.762Z,4.7
2017-01-29T02:55:01.468Z,4.7
2017-01-29T03:00:01.311Z,4.7
2017-01-29T03:05:01.652Z,4.7
2017-01-29T03:10:01.608Z,4.7
2017-01-29T03:15:01.600Z,4.7
2017-01-29T03:20:01.467Z,4.7
2017-01-29T03:25:01.802Z,4.7
2017-01-29T03:30:02.021Z,4.7
2017-01-29T03:35:01.562Z,4.7
2017-01-29T03:40:01.410Z,4.7
2017-01-29T03:45:01.361Z,4.7
2017-01-29T03:50:02.034Z,4.7
2017-01-29T03:55:02.036Z,4.7
2017-01-29T04:00:01.365Z,4.7
2017-01-29T04:05:01.226Z,4.7
2017-01-29T04:10:01.478Z,4.8
2017-01-29T04:15:01.581Z,4.8
2017-01-29T04:20:01.244Z,4.8
2017-01-29T04:25:01.405Z,4.8
2017-01-29T04:30:01.434Z,4.8
2017-01-29T04:35:01.757Z,4.8
2017-01-29T04:40:01.912Z,4.8
2017-01-29T04:45:01.361Z,4.8
2017-01-29T04:50:01.374Z,4.8
2017-01-29T04:55:01.207Z,4.8
2017-01-29T05:00:01.360Z,4.8
2017-01-29T05:05:01.821Z,4.9
2017-01-29T05:10:01.589Z,4.9
2017-01-29T05:15:01.597Z,4.9
2017-01-29T05:20:01.697Z,4.9
2017-01-29T05:25:01.358Z,4.9
2017-01-29T05:30:01.226Z,4.9
2017-01-29T05:35:02.112Z,4.9
2017-01-29T05:40:01.205Z,4.9
2017-01-29T05:45:01.752Z,4.9
2017-01-29T05:50:02.003Z,5.1
2017-01-29T05:55:01.242Z,5.1
2017-01-29T06:00:01.486Z,5.1
2017-01-29T06:05:01.679Z,5.1
2017-01-29T06:10:01.393Z,5.1
2017-01-29T06:15:02.111Z,5.2
2017-01-29T06:20:01.428Z,5.2
2017-01-29T06:25:02.117Z,5.2
2017-01-29T06:30:01.845Z,5.2
2017-01-29T06:35:02.156Z,5.2
2017-01-29T06:40:02.010Z,5.2
2017-01-29T06:45:02.067Z,5.3
2017-01-29T06:50:01.698Z,5.2
2017-01-29T06:55:02.068Z,5.3
2017-01-29T07:00:01.813Z,5.3
2017-01-29T07:05:01.413Z,5.3
2017-01-29T07:10:02.038Z,5.3
2017-01-29T07:15:01.956Z,5.3
2017-01-29T07:20:01.532Z,5.4
2017-01-29T07:25:01.459Z,5.4
2017-01-29T07:30:01.784Z,5.4
2017-01-29T07:35:01.868Z,5.4
2017-01-29T07:40:01.629Z,5.4
2017-01-29T07:45:02.031Z,5.4
2017-01-29T07:50:01.405Z,5.4
2017-01-29T07:55:02.138Z,5.5
2017-01-29T08:00:02.157Z,5.5
2017-01-29T08:05:01.332Z,5.5
2017-01-29T08:10:01.834Z,5.5
2017-01-29T08:15:01.712Z,5.5
2017-01-29T08:20:01.793Z,5.6
2017-01-29T08:25:02.138Z,5.6
2017-01-29T08:30:01.323Z,5.6
2017-01-29T08:35:01.494Z,5.6
2017-01-29T08:40:01.305Z,5.7
2017-01-29T08:45:01.834Z,5.7
2017-01-29T08:50:02.080Z,5.7
2017-01-29T08:55:01.532Z,5.7
2017-01-29T09:00:01.736Z,5.7
2017-01-29T09:05:01.573Z,5.7
2017-01-29T09:10:01.844Z,5.8
2017-01-29T09:15:01.243Z,5.8
2017-01-29T09:20:01.538Z,5.8
2017-01-29T09:25:01.620Z,5.8
2017-01-29T09:30:01.906Z,5.9
2017-01-29T09:35:01.545Z,5.9
2017-01-29T09:40:01.258Z,6
2017-01-29T09:45:01.893Z,5.9
2017-01-29T09:50:01.695Z,6
2017-01-29T09:55:01.535Z,6
2017-01-29T10:00:02.080Z,6
2017-01-29T10:05:01.991Z,6
2017-01-29T10:10:01.358Z,6.1
2017-01-29T10:15:02.282Z,6.1
2017-01-29T10:20:01.626Z,6.1
2017-01-29T10:25:02.222Z,6.2
2017-01-29T10:30:01.177Z,6.3
2017-01-29T10:35:02.159Z,6.2
2017-01-29T10:40:01.194Z,6.3
2017-01-29T10:45:01.825Z,6.4
2017-01-29T10:50:01.789Z,6.4
2017-01-29T10:55:01.342Z,6.4
2017-01-29T11:00:01.204Z,6.5
2017-01-29T11:05:01.854Z,6.6
2017-01-29T11:10:01.877Z,6.6
2017-01-29T11:15:01.810Z,6.6
2017-01-29T11:20:01.725Z,6.6
2017-01-29T11:25:01.977Z,6.6
2017-01-29T11:30:01.331Z,6.8
2017-01-29T11:35:01.734Z,6.7
2017-01-29T11:40:01.629Z,6.7
2017-01-29T11:45:01.387Z,6.7
2017-01-29T11:50:02.136Z,6.7
2017-01-29T11:55:01.652Z,6.7
2017-01-29T12:00:01.967Z,6.8
2017-01-29T12:05:01.716Z,6.8
2017-01-29T12:10:01.541Z,6.8
2017-01-29T12:15:01.997Z,6.8
2017-01-29T12:20:01.618Z,6.8
2017-01-29T12:25:01.782Z,6.9
2017-01-29T12:30:02.063Z,6.9
2017-01-29T12:35:01.801Z,6.8
2017-01-29T12:40:01.572Z,6.8
2017-01-29T12:45:02.102Z,6.8
2017-01-29T12:50:01.570Z,6.7
2017-01-29T12:55:02.113Z,6.6
2017-01-29T13:00:01.394Z,6.6
2017-01-29T13:05:02.163Z,6.6
2017-01-29T13:10:01.997Z,6.6
2017-01-29T13:15:01.492Z,6.6
2017-01-29T13:20:02.106Z,6.6
2017-01-29T13:25:01.274Z,6.6
2017-01-29T13:30:01.775Z,6.5
2017-01-29T13:35:01.488Z,6.5
2017-01-29T13:40:01.261Z,6.5
2017-01-29T13:45:01.732Z,6.5
2017-01-29T13:50:01.354Z,6.5
2017-01-29T13:55:01.855Z,6.6
2017-01-29T14:00:02.173Z,6.6
2017-01-29T14:05:02.179Z,6.5
2017-01-29T14:10:01.500Z,6.5
2017-01-29T14:15:01.806Z,6.6
2017-01-29T14:20:01.999Z,6.5
2017-01-29T14:25:01.283Z,6.5
2017-01-29T14:30:01.197Z,6.5
2017-01-29T14:35:02.146Z,6.4
2017-01-29T14:40:01.497Z,6.4
2017-01-29T14:45:01.756Z,6.4
2017-01-29T14:50:02.054Z,6.4
2017-01-29T14:55:01.916Z,6.4
2017-01-29T15:00:01.686Z,6.4
2017-01-29T15:05:01.708Z,6.4
2017-01-29T15:10:01.870Z,6.5
2017-01-29T15:15:01.527Z,6.5
2017-01-29T15:20:01.737Z,6.5
2017-01-29T15:25:02.214Z,6.5
2017-01-29T15:30:02.165Z,6.5
2017-01-29T15:35:01.783Z,6.5
2017-01-29T15:40:02.197Z,6.5
2017-01-29T15:45:01.982Z,6.5
2017-01-29T15:50:01.752Z,6.5
2017-01-29T15:55:01.838Z,6.5
2017-01-29T16:00:01.452Z,6.5
2017-01-29T16:05:01.477Z,6.5
2017-01-29T16:10:01.608Z,6.5
2017-01-29T16:15:02.523Z,6.5
2017-01-29T16:20:01.298Z,6.5
2017-01-29T16:25:01.286Z,6.5
2017-01-29T16:30:01.192Z,6.4
2017-01-29T16:35:01.780Z,6.4
2017-01-29T16:40:02.047Z,6.5
2017-01-29T16:45:02.046Z,6.4
2017-01-29T16:50:01.481Z,6.4
2017-01-29T16:55:01.818Z,6.4
2017-01-29T17:00:01.588Z,6.4
2017-01-29T17:05:01.584Z,6.4
2017-01-29T17:10:02.017Z,6.4
2017-01-29T17:15:01.813Z,6.4
2017-01-29T17:20:01.639Z,6.4
2017-01-29T17:25:02.153Z,6.4
2017-01-29T17:30:01.951Z,6.4
2017-01-29T17:35:01.770Z,6.4
2017-01-29T17:40:01.415Z,6.4
2017-01-29T17:45:01.210Z,6.3
2017-01-29T17:50:01.785Z,6.3
2017-01-29T17:55:01.888Z,6.3
2017-01-29T18:00:01.246Z,6.3
2017-01-29T18:05:01.859Z,6.3
2017-01-29T18:10:01.817Z,6.2
2017-01-29T18:15:02.086Z,6.2
2017-01-29T18:20:01.740Z,6.2
2017-01-29T18:25:01.410Z,6.2
2017-01-29T18:30:01.751Z,6.2
2017-01-29T18:35:01.871Z,6.2
2017-01-29T18:40:01.555Z,6.2
2017-01-29T18:45:01.358Z,6.2
2017-01-29T18:50:01.347Z,6.2
2017-01-29T18:55:02.081Z,6.1
2017-01-29T19:00:01.197Z,6.2
2017-01-29T19:05:01.399Z,6.2
2017-01-29T19:10:01.679Z,6.2
2017-01-29T19:15:02.090Z,6.1
2017-01-29T19:20:01.899Z,6.1
2017-01-29T19:25:01.611Z,6.2
2017-01-29T19:30:01.690Z,6.1
2017-01-29T19:35:01.801Z,6.1
2017-01-29T19:40:02.491Z,6.2
2017-01-29T19:45:01.489Z,6.2
2017-01-29T19:50:01.444Z,6.2
2017-01-29T19:55:01.615Z,6.2
2017-01-29T20:00:02.174Z,6.2
2017-01-29T20:05:01.545Z,6.2
2017-01-29T20:10:01.749Z,6.2
2017-01-29T20:15:01.429Z,6.2
2017-01-29T20:20:01.801Z,6.3
2017-01-29T20:25:02.179Z,6.3
2017-01-29T20:30:01.173Z,6.2
2017-01-29T20:35:02.040Z,6.2
2017-01-29T20:40:01.841Z,6.2
2017-01-29T20:45:01.195Z,6.2
2017-01-29T20:50:01.462Z,6.2
2017-01-29T20:55:01.624Z,6.2
2017-01-29T21:00:01.892Z,6.2
2017-01-29T21:05:01.393Z,6.2
2017-01-29T21:10:01.196Z,6.1
2017-01-29T21:15:01.414Z,6.1
2017-01-29T21:20:01.543Z,6.1
2017-01-29T21:25:01.942Z,6.1
2017-01-29T21:30:02.109Z,6.1
2017-01-29T21:35:01.535Z,6.1
2017-01-29T21:40:01.608Z,6
2017-01-29T21:45:01.790Z,6
2017-01-29T21:50:01.579Z,6
2017-01-29T21:55:01.201Z,5.9
2017-01-29T22:00:01.573Z,5.9
2017-01-29T22:05:02.094Z,5.9
2017-01-29T22:10:02.589Z,5.8
2017-01-29T22:15:01.183Z,5.8
2017-01-29T22:20:01.569Z,5.8
2017-01-29T22:25:01.678Z,5.8
2017-01-29T22:30:01.590Z,5.7
2017-01-29T22:35:01.564Z,5.7
2017-01-29T22:40:01.751Z,5.7
2017-01-29T22:45:01.467Z,5.6
2017-01-29T22:50:01.725Z,5.6
2017-01-29T22:55:02.003Z,5.6
2017-01-29T23:00:02.020Z,5.6
2017-01-29T23:05:01.790Z,5.6
2017-01-29T23:10:01.229Z,5.5
2017-01-29T23:15:02.078Z,5.6
2017-01-29T23:20:01.290Z,5.6
2017-01-29T23:25:02.374Z,5.6
2017-01-29T23:30:02.224Z,5.6
2017-01-29T23:35:01.515Z,5.6
2017-01-29T23:40:01.893Z,5.6
2017-01-29T23:45:01.642Z,5.6
2017-01-29T23:50:02.118Z,5.6
2017-01-29T23:55:01.256Z,5.6
